sensor_id;sensor_type;location;lat;lon;timestamp;pressure;altitude;pressure_sealevel;temperature;humidity
15646;BME280;7922;43.622;1.476;2024-02-16T00:01:42;100155.97;;;12.21;94.81
15646;BME280;7922;43.622;1.476;2024-02-16T00:04:08;100192.94;;;12.45;95.31
15646;BME280;7922;43.622;1.476;2024-02-16T00:06:33;100169.16;;;12.23;95.40
15646;BME280;7922;43.622;1.476;2024-02-16T00:08:58;100175.19;;;12.26;95.95
15646;BME280;7922;43.622;1.476;2024-02-16T00:11:24;100199.34;;;12.41;96.06
15646;BME280;7922;43.622;1.476;2024-02-16T00:13:49;100158.91;;;12.15;95.65
15646;BME280;7922;43.622;1.476;2024-02-16T00:16:14;100191.00;;;12.29;96.12
15646;BME280;7922;43.622;1.476;2024-02-16T00:18:39;100197.97;;;12.32;95.65
15646;BME280;7922;43.622;1.476;2024-02-16T00:21:05;100178.06;;;12.22;95.64
15646;BME280;7922;43.622;1.476;2024-02-16T00:23:30;100183.13;;;12.28;96.03
15646;BME280;7922;43.622;1.476;2024-02-16T00:25:55;100208.16;;;12.41;95.80
15646;BME280;7922;43.622;1.476;2024-02-16T00:28:20;100191.34;;;12.22;95.98
15646;BME280;7922;43.622;1.476;2024-02-16T00:30:46;100203.50;;;12.27;96.05
15646;BME280;7922;43.622;1.476;2024-02-16T00:33:11;100202.63;;;12.27;95.99
15646;BME280;7922;43.622;1.476;2024-02-16T00:35:36;100218.28;;;12.33;95.85
15646;BME280;7922;43.622;1.476;2024-02-16T00:38:02;100161.41;;;11.99;96.21
15646;BME280;7922;43.622;1.476;2024-02-16T00:40:27;100196.03;;;12.17;96.26
15646;BME280;7922;43.622;1.476;2024-02-16T00:42:52;100141.03;;;11.79;96.16
15646;BME280;7922;43.622;1.476;2024-02-16T00:45:18;100214.44;;;12.20;95.62
15646;BME280;7922;43.622;1.476;2024-02-16T00:47:43;100219.75;;;12.20;96.27
15646;BME280;7922;43.622;1.476;2024-02-16T00:50:09;100232.56;;;12.31;95.91
15646;BME280;7922;43.622;1.476;2024-02-16T00:52:34;100209.34;;;12.15;95.84
15646;BME280;7922;43.622;1.476;2024-02-16T00:54:59;100233.59;;;12.28;96.27
15646;BME280;7922;43.622;1.476;2024-02-16T00:57:25;100230.34;;;12.21;96.18
15646;BME280;7922;43.622;1.476;2024-02-16T00:59:50;100180.25;;;11.93;95.97
15646;BME280;7922;43.622;1.476;2024-02-16T01:02:15;100222.59;;;12.17;96.67
15646;BME280;7922;43.622;1.476;2024-02-16T01:04:40;100183.03;;;11.90;96.02
15646;BME280;7922;43.622;1.476;2024-02-16T01:07:06;100235.78;;;12.18;96.41
15646;BME280;7922;43.622;1.476;2024-02-16T01:09:31;100247.78;;;12.27;96.13
15646;BME280;7922;43.622;1.476;2024-02-16T01:11:56;100162.97;;;11.83;95.89
15646;BME280;7922;43.622;1.476;2024-02-16T01:14:21;100230.38;;;12.20;95.79
15646;BME280;7922;43.622;1.476;2024-02-16T01:16:47;100226.75;;;12.22;95.30
15646;BME280;7922;43.622;1.476;2024-02-16T01:19:12;100220.91;;;12.14;95.57
15646;BME280;7922;43.622;1.476;2024-02-16T01:21:37;100251.69;;;12.39;95.61
15646;BME280;7922;43.622;1.476;2024-02-16T01:24:03;100221.50;;;12.21;95.75
15646;BME280;7922;43.622;1.476;2024-02-16T01:26:28;100221.56;;;12.19;95.51
15646;BME280;7922;43.622;1.476;2024-02-16T01:28:54;100253.50;;;12.38;95.15
15646;BME280;7922;43.622;1.476;2024-02-16T01:31:19;100227.72;;;12.20;95.40
15646;BME280;7922;43.622;1.476;2024-02-16T01:33:44;100199.34;;;12.01;95.32
15646;BME280;7922;43.622;1.476;2024-02-16T01:36:10;100195.19;;;11.96;95.20
15646;BME280;7922;43.622;1.476;2024-02-16T01:38:35;100251.97;;;12.33;95.30
15646;BME280;7922;43.622;1.476;2024-02-16T01:41:00;100241.59;;;12.26;95.53
15646;BME280;7922;43.622;1.476;2024-02-16T01:43:25;100257.91;;;12.38;95.67
15646;BME280;7922;43.622;1.476;2024-02-16T01:45:51;100237.09;;;12.28;95.37
15646;BME280;7922;43.622;1.476;2024-02-16T01:48:16;100229.25;;;12.25;95.31
15646;BME280;7922;43.622;1.476;2024-02-16T01:50:45;100256.19;;;12.37;95.48
15646;BME280;7922;43.622;1.476;2024-02-16T01:53:11;100213.00;;;12.13;95.51
15646;BME280;7922;43.622;1.476;2024-02-16T01:55:38;100238.81;;;12.29;95.74
15646;BME280;7922;43.622;1.476;2024-02-16T01:58:04;100178.41;;;11.95;95.47
15646;BME280;7922;43.622;1.476;2024-02-16T02:00:29;100231.19;;;12.22;95.70
15646;BME280;7922;43.622;1.476;2024-02-16T02:02:55;100195.78;;;12.02;95.98
15646;BME280;7922;43.622;1.476;2024-02-16T02:05:20;100198.22;;;12.07;95.54
15646;BME280;7922;43.622;1.476;2024-02-16T02:07:45;100200.88;;;12.07;95.64
15646;BME280;7922;43.622;1.476;2024-02-16T02:10:11;100243.78;;;12.37;95.68
15646;BME280;7922;43.622;1.476;2024-02-16T02:12:36;100236.28;;;12.26;95.82
15646;BME280;7922;43.622;1.476;2024-02-16T02:15:01;100215.75;;;12.11;95.95
15646;BME280;7922;43.622;1.476;2024-02-16T02:17:27;100192.41;;;11.99;96.16
15646;BME280;7922;43.622;1.476;2024-02-16T02:19:52;100253.63;;;12.35;95.87
15646;BME280;7922;43.622;1.476;2024-02-16T02:22:18;100242.41;;;12.28;96.14
15646;BME280;7922;43.622;1.476;2024-02-16T02:24:44;100233.00;;;12.21;95.56
15646;BME280;7922;43.622;1.476;2024-02-16T02:27:10;100254.47;;;12.36;95.67
15646;BME280;7922;43.622;1.476;2024-02-16T02:29:35;100229.53;;;12.19;95.80
15646;BME280;7922;43.622;1.476;2024-02-16T02:32:00;100248.66;;;12.27;95.47
15646;BME280;7922;43.622;1.476;2024-02-16T02:34:26;100250.16;;;12.33;95.34
15646;BME280;7922;43.622;1.476;2024-02-16T02:36:51;100253.91;;;12.29;95.52
15646;BME280;7922;43.622;1.476;2024-02-16T02:39:17;100239.09;;;12.23;95.17
15646;BME280;7922;43.622;1.476;2024-02-16T02:41:42;100197.38;;;12.07;94.89
15646;BME280;7922;43.622;1.476;2024-02-16T02:44:07;100251.69;;;12.39;95.18
15646;BME280;7922;43.622;1.476;2024-02-16T02:46:32;100205.94;;;12.13;95.15
15646;BME280;7922;43.622;1.476;2024-02-16T02:48:58;100228.41;;;12.25;95.16
15646;BME280;7922;43.622;1.476;2024-02-16T02:51:23;100246.38;;;12.39;95.15
15646;BME280;7922;43.622;1.476;2024-02-16T02:53:48;100225.75;;;12.25;94.94
15646;BME280;7922;43.622;1.476;2024-02-16T02:56:14;100252.78;;;12.35;94.86
15646;BME280;7922;43.622;1.476;2024-02-16T02:58:39;100226.75;;;12.22;95.32
15646;BME280;7922;43.622;1.476;2024-02-16T03:01:05;100224.22;;;12.19;94.99
15646;BME280;7922;43.622;1.476;2024-02-16T03:03:30;100241.81;;;12.22;95.23
15646;BME280;7922;43.622;1.476;2024-02-16T03:05:55;100263.31;;;12.36;95.13
15646;BME280;7922;43.622;1.476;2024-02-16T03:08:20;100255.59;;;12.30;95.08
15646;BME280;7922;43.622;1.476;2024-02-16T03:10:46;100229.47;;;12.21;94.98
15646;BME280;7922;43.622;1.476;2024-02-16T03:13:11;100219.38;;;12.09;94.54
15646;BME280;7922;43.622;1.476;2024-02-16T03:15:36;100250.44;;;12.27;94.75
15646;BME280;7922;43.622;1.476;2024-02-16T03:18:02;100264.38;;;12.32;94.65
15646;BME280;7922;43.622;1.476;2024-02-16T03:20:27;100250.59;;;12.24;94.92
15646;BME280;7922;43.622;1.476;2024-02-16T03:22:53;100255.81;;;12.25;95.32
15646;BME280;7922;43.622;1.476;2024-02-16T03:25:18;100253.25;;;12.24;95.12
15646;BME280;7922;43.622;1.476;2024-02-16T03:27:45;100219.59;;;12.04;95.17
15646;BME280;7922;43.622;1.476;2024-02-16T03:30:10;100239.66;;;12.11;95.66
15646;BME280;7922;43.622;1.476;2024-02-16T03:32:36;100229.25;;;12.07;95.94
15646;BME280;7922;43.622;1.476;2024-02-16T03:35:01;100251.50;;;12.23;96.52
15646;BME280;7922;43.622;1.476;2024-02-16T03:37:26;100225.91;;;12.01;96.93
15646;BME280;7922;43.622;1.476;2024-02-16T03:39:51;100258.09;;;12.14;97.46
15646;BME280;7922;43.622;1.476;2024-02-16T03:42:17;100266.78;;;12.18;98.08
15646;BME280;7922;43.622;1.476;2024-02-16T03:44:43;100255.66;;;12.10;98.62
15646;BME280;7922;43.622;1.476;2024-02-16T03:47:08;100279.13;;;12.19;99.45
15646;BME280;7922;43.622;1.476;2024-02-16T03:49:33;100273.38;;;12.09;100.00
15646;BME280;7922;43.622;1.476;2024-02-16T03:51:59;100277.69;;;12.12;100.00
15646;BME280;7922;43.622;1.476;2024-02-16T03:54:24;100282.13;;;12.11;100.00
15646;BME280;7922;43.622;1.476;2024-02-16T03:56:55;100301.25;;;12.19;100.00
15646;BME280;7922;43.622;1.476;2024-02-16T03:59:20;100279.28;;;11.95;100.00
15646;BME280;7922;43.622;1.476;2024-02-16T04:01:46;100295.97;;;11.99;100.00
15646;BME280;7922;43.622;1.476;2024-02-16T04:04:11;100286.44;;;11.93;100.00
15646;BME280;7922;43.622;1.476;2024-02-16T04:06:37;100307.22;;;12.04;100.00
15646;BME280;7922;43.622;1.476;2024-02-16T04:09:03;100321.44;;;12.03;100.00
15646;BME280;7922;43.622;1.476;2024-02-16T04:11:28;100289.50;;;11.84;100.00
15646;BME280;7922;43.622;1.476;2024-02-16T04:13:53;100308.41;;;11.97;100.00
15646;BME280;7922;43.622;1.476;2024-02-16T04:16:18;100297.31;;;11.87;100.00
15646;BME280;7922;43.622;1.476;2024-02-16T04:18:44;100287.81;;;11.81;100.00
15646;BME280;7922;43.622;1.476;2024-02-16T04:21:09;100317.44;;;11.93;100.00
15646;BME280;7922;43.622;1.476;2024-02-16T04:23:34;100301.94;;;11.82;100.00
15646;BME280;7922;43.622;1.476;2024-02-16T04:25:59;100321.69;;;11.97;100.00
15646;BME280;7922;43.622;1.476;2024-02-16T04:28:25;100304.72;;;11.79;100.00
15646;BME280;7922;43.622;1.476;2024-02-16T04:30:50;100324.44;;;11.95;100.00
15646;BME280;7922;43.622;1.476;2024-02-16T04:33:15;100326.34;;;11.92;100.00
15646;BME280;7922;43.622;1.476;2024-02-16T04:35:41;100333.25;;;11.96;100.00
15646;BME280;7922;43.622;1.476;2024-02-16T04:38:06;100335.69;;;12.00;100.00
15646;BME280;7922;43.622;1.476;2024-02-16T04:40:36;100337.00;;;11.90;100.00
15646;BME280;7922;43.622;1.476;2024-02-16T04:43:01;100339.97;;;11.82;100.00
15646;BME280;7922;43.622;1.476;2024-02-16T04:45:27;100339.22;;;11.79;100.00
15646;BME280;7922;43.622;1.476;2024-02-16T04:47:52;100323.94;;;11.64;100.00
15646;BME280;7922;43.622;1.476;2024-02-16T04:50:17;100353.44;;;11.78;100.00
15646;BME280;7922;43.622;1.476;2024-02-16T04:52:43;100366.69;;;11.78;100.00
15646;BME280;7922;43.622;1.476;2024-02-16T04:55:08;100329.69;;;11.53;100.00
15646;BME280;7922;43.622;1.476;2024-02-16T04:57:33;100383.38;;;11.81;100.00
15646;BME280;7922;43.622;1.476;2024-02-16T04:59:59;100365.75;;;11.79;100.00
15646;BME280;7922;43.622;1.476;2024-02-16T05:02:24;100381.34;;;11.88;100.00
15646;BME280;7922;43.622;1.476;2024-02-16T05:04:49;100379.75;;;11.84;100.00
15646;BME280;7922;43.622;1.476;2024-02-16T05:07:15;100369.66;;;11.70;100.00
15646;BME280;7922;43.622;1.476;2024-02-16T05:09:40;100329.19;;;11.43;100.00
15646;BME280;7922;43.622;1.476;2024-02-16T05:12:05;100383.69;;;11.74;100.00
15646;BME280;7922;43.622;1.476;2024-02-16T05:14:31;100381.34;;;11.66;100.00
15646;BME280;7922;43.622;1.476;2024-02-16T05:16:56;100396.13;;;11.72;100.00
15646;BME280;7922;43.622;1.476;2024-02-16T05:19:21;100418.06;;;11.77;100.00
15646;BME280;7922;43.622;1.476;2024-02-16T05:21:47;100412.59;;;11.58;100.00
15646;BME280;7922;43.622;1.476;2024-02-16T05:24:12;100357.59;;;11.18;100.00
15646;BME280;7922;43.622;1.476;2024-02-16T05:26:37;100411.59;;;11.39;100.00
15646;BME280;7922;43.622;1.476;2024-02-16T05:29:02;100409.25;;;11.31;100.00
15646;BME280;7922;43.622;1.476;2024-02-16T05:31:28;100364.38;;;11.03;100.00
15646;BME280;7922;43.622;1.476;2024-02-16T05:33:53;100413.50;;;11.35;100.00
15646;BME280;7922;43.622;1.476;2024-02-16T05:36:19;100433.91;;;11.56;100.00
15646;BME280;7922;43.622;1.476;2024-02-16T05:38:48;100418.34;;;11.47;100.00
15646;BME280;7922;43.622;1.476;2024-02-16T05:41:14;100425.31;;;11.50;100.00
15646;BME280;7922;43.622;1.476;2024-02-16T05:43:42;100425.84;;;11.36;100.00
15646;BME280;7922;43.622;1.476;2024-02-16T05:46:12;100428.47;;;11.38;100.00
15646;BME280;7922;43.622;1.476;2024-02-16T05:48:38;100415.59;;;11.27;100.00
15646;BME280;7922;43.622;1.476;2024-02-16T05:51:03;100435.78;;;11.31;100.00
15646;BME280;7922;43.622;1.476;2024-02-16T05:53:29;100448.75;;;11.39;100.00
15646;BME280;7922;43.622;1.476;2024-02-16T05:55:54;100443.50;;;11.37;100.00
15646;BME280;7922;43.622;1.476;2024-02-16T05:58:19;100435.66;;;11.34;100.00
15646;BME280;7922;43.622;1.476;2024-02-16T06:00:44;100422.69;;;11.26;100.00
15646;BME280;7922;43.622;1.476;2024-02-16T06:03:10;100445.91;;;11.43;100.00
15646;BME280;7922;43.622;1.476;2024-02-16T06:05:35;100453.94;;;11.42;100.00
15646;BME280;7922;43.622;1.476;2024-02-16T06:08:00;100470.19;;;11.56;100.00
15646;BME280;7922;43.622;1.476;2024-02-16T06:10:26;100395.72;;;11.15;100.00
15646;BME280;7922;43.622;1.476;2024-02-16T06:12:51;100440.84;;;11.37;100.00
15646;BME280;7922;43.622;1.476;2024-02-16T06:15:16;100450.97;;;11.49;100.00
15646;BME280;7922;43.622;1.476;2024-02-16T06:17:42;100445.69;;;11.49;100.00
15646;BME280;7922;43.622;1.476;2024-02-16T06:20:07;100407.66;;;11.27;100.00
15646;BME280;7922;43.622;1.476;2024-02-16T06:22:33;100462.03;;;11.61;100.00
15646;BME280;7922;43.622;1.476;2024-02-16T06:24:58;100452.56;;;11.55;100.00
15646;BME280;7922;43.622;1.476;2024-02-16T06:27:23;100422.41;;;11.34;100.00
15646;BME280;7922;43.622;1.476;2024-02-16T06:29:49;100457.78;;;11.56;100.00
15646;BME280;7922;43.622;1.476;2024-02-16T06:32:14;100462.91;;;11.61;100.00
15646;BME280;7922;43.622;1.476;2024-02-16T06:34:39;100413.75;;;11.29;100.00
15646;BME280;7922;43.622;1.476;2024-02-16T06:37:04;100462.91;;;11.61;100.00
15646;BME280;7922;43.622;1.476;2024-02-16T06:39:30;100460.44;;;11.56;100.00
15646;BME280;7922;43.622;1.476;2024-02-16T06:41:55;100468.28;;;11.60;100.00
15646;BME280;7922;43.622;1.476;2024-02-16T06:44:20;100413.63;;;11.32;100.00
15646;BME280;7922;43.622;1.476;2024-02-16T06:46:45;100475.38;;;11.59;100.00
15646;BME280;7922;43.622;1.476;2024-02-16T06:49:11;100460.31;;;11.60;100.00
15646;BME280;7922;43.622;1.476;2024-02-16T06:51:36;100413.00;;;11.25;100.00
15646;BME280;7922;43.622;1.476;2024-02-16T06:54:01;100416.34;;;11.30;100.00
15646;BME280;7922;43.622;1.476;2024-02-16T06:56:27;100439.81;;;11.41;100.00
15646;BME280;7922;43.622;1.476;2024-02-16T06:58:52;100479.09;;;11.55;100.00
15646;BME280;7922;43.622;1.476;2024-02-16T07:01:17;100487.94;;;11.54;100.00
15646;BME280;7922;43.622;1.476;2024-02-16T07:03:43;100494.84;;;11.58;100.00
15646;BME280;7922;43.622;1.476;2024-02-16T07:06:08;100488.53;;;11.62;100.00
15646;BME280;7922;43.622;1.476;2024-02-16T07:08:34;100448.06;;;11.33;100.00
15646;BME280;7922;43.622;1.476;2024-02-16T07:10:59;100499.00;;;11.65;100.00
15646;BME280;7922;43.622;1.476;2024-02-16T07:13:24;100449.84;;;11.33;100.00
15646;BME280;7922;43.622;1.476;2024-02-16T07:15:50;100501.72;;;11.64;100.00
15646;BME280;7922;43.622;1.476;2024-02-16T07:18:15;100502.56;;;11.66;100.00
15646;BME280;7922;43.622;1.476;2024-02-16T07:20:40;100520.75;;;11.75;100.00
15646;BME280;7922;43.622;1.476;2024-02-16T07:23:06;100418.25;;;11.03;100.00
15646;BME280;7922;43.622;1.476;2024-02-16T07:25:31;100504.72;;;11.54;100.00
15646;BME280;7922;43.622;1.476;2024-02-16T07:27:56;100526.59;;;11.61;100.00
15646;BME280;7922;43.622;1.476;2024-02-16T07:30:21;100517.13;;;11.54;100.00
15646;BME280;7922;43.622;1.476;2024-02-16T07:32:50;100477.06;;;11.38;100.00
15646;BME280;7922;43.622;1.476;2024-02-16T07:35:16;100548.75;;;11.84;100.00
15646;BME280;7922;43.622;1.476;2024-02-16T07:37:42;100529.09;;;11.66;100.00
15646;BME280;7922;43.622;1.476;2024-02-16T07:40:08;100495.13;;;11.52;100.00
15646;BME280;7922;43.622;1.476;2024-02-16T07:42:33;100538.47;;;11.74;100.00
15646;BME280;7922;43.622;1.476;2024-02-16T07:44:58;100553.25;;;11.81;100.00
15646;BME280;7922;43.622;1.476;2024-02-16T07:47:23;100562.72;;;11.89;100.00
15646;BME280;7922;43.622;1.476;2024-02-16T07:49:49;100490.84;;;11.48;100.00
15646;BME280;7922;43.622;1.476;2024-02-16T07:52:14;100523.94;;;11.61;100.00
15646;BME280;7922;43.622;1.476;2024-02-16T07:54:39;100570.88;;;11.84;100.00
15646;BME280;7922;43.622;1.476;2024-02-16T07:57:05;100543.97;;;11.70;100.00
15646;BME280;7922;43.622;1.476;2024-02-16T07:59:31;100549.31;;;11.68;100.00
15646;BME280;7922;43.622;1.476;2024-02-16T08:01:56;100497.91;;;11.47;100.00
15646;BME280;7922;43.622;1.476;2024-02-16T08:04:21;100509.41;;;11.48;100.00
15646;BME280;7922;43.622;1.476;2024-02-16T08:06:47;100576.03;;;11.87;100.00
15646;BME280;7922;43.622;1.476;2024-02-16T08:09:12;100598.66;;;11.97;100.00
15646;BME280;7922;43.622;1.476;2024-02-16T08:11:37;100583.91;;;11.90;100.00
15646;BME280;7922;43.622;1.476;2024-02-16T08:14:02;100526.59;;;11.61;100.00
15646;BME280;7922;43.622;1.476;2024-02-16T08:16:28;100559.63;;;11.76;100.00
15646;BME280;7922;43.622;1.476;2024-02-16T08:18:53;100595.38;;;11.91;100.00
15646;BME280;7922;43.622;1.476;2024-02-16T08:21:18;100575.41;;;11.80;100.00
15646;BME280;7922;43.622;1.476;2024-02-16T08:23:44;100607.56;;;11.96;100.00
15646;BME280;7922;43.622;1.476;2024-02-16T08:26:09;100594.59;;;11.89;100.00
15646;BME280;7922;43.622;1.476;2024-02-16T08:28:34;100539.28;;;11.53;100.00
15646;BME280;7922;43.622;1.476;2024-02-16T08:31:00;100605.41;;;11.82;100.00
15646;BME280;7922;43.622;1.476;2024-02-16T08:33:25;100599.19;;;11.84;100.00
15646;BME280;7922;43.622;1.476;2024-02-16T08:35:50;100518.53;;;11.41;100.00
15646;BME280;7922;43.622;1.476;2024-02-16T08:38:15;100609.38;;;11.96;100.00
15646;BME280;7922;43.622;1.476;2024-02-16T08:40:41;100603.97;;;11.97;100.00
15646;BME280;7922;43.622;1.476;2024-02-16T08:43:06;100558.72;;;11.77;100.00
15646;BME280;7922;43.622;1.476;2024-02-16T08:45:31;100585.88;;;11.85;100.00
15646;BME280;7922;43.622;1.476;2024-02-16T08:47:56;100613.63;;;12.00;100.00
15646;BME280;7922;43.622;1.476;2024-02-16T08:50:24;100609.38;;;11.96;100.00
15646;BME280;7922;43.622;1.476;2024-02-16T08:52:49;100617.25;;;11.97;100.00
15646;BME280;7922;43.622;1.476;2024-02-16T08:55:15;100624.53;;;12.16;100.00
15646;BME280;7922;43.622;1.476;2024-02-16T08:57:40;100573.25;;;11.92;100.00
15646;BME280;7922;43.622;1.476;2024-02-16T09:00:06;100613.44;;;12.28;100.00
15646;BME280;7922;43.622;1.476;2024-02-16T09:02:31;100636.28;;;12.32;100.00
15646;BME280;7922;43.622;1.476;2024-02-16T09:04:57;100609.31;;;12.19;100.00
15646;BME280;7922;43.622;1.476;2024-02-16T09:07:22;100641.31;;;12.40;100.00
15646;BME280;7922;43.622;1.476;2024-02-16T09:09:47;100620.16;;;12.37;100.00
15646;BME280;7922;43.622;1.476;2024-02-16T09:12:12;100605.59;;;12.25;100.00
15646;BME280;7922;43.622;1.476;2024-02-16T09:14:38;100600.56;;;12.17;100.00
15646;BME280;7922;43.622;1.476;2024-02-16T09:17:03;100567.31;;;12.07;100.00
15646;BME280;7922;43.622;1.476;2024-02-16T09:19:28;100650.25;;;12.59;100.00
15646;BME280;7922;43.622;1.476;2024-02-16T09:21:54;100616.97;;;12.50;100.00
15646;BME280;7922;43.622;1.476;2024-02-16T09:24:19;100635.00;;;12.64;100.00
15646;BME280;7922;43.622;1.476;2024-02-16T09:26:45;100643.72;;;12.68;100.00
15646;BME280;7922;43.622;1.476;2024-02-16T09:29:10;100658.66;;;12.48;100.00
15646;BME280;7922;43.622;1.476;2024-02-16T09:31:35;100678.28;;;12.46;100.00
15646;BME280;7922;43.622;1.476;2024-02-16T09:34:01;100659.59;;;12.47;100.00
15646;BME280;7922;43.622;1.476;2024-02-16T09:36:26;100692.00;;;12.79;100.00
15646;BME280;7922;43.622;1.476;2024-02-16T09:38:51;100674.06;;;12.62;100.00
15646;BME280;7922;43.622;1.476;2024-02-16T09:41:17;100635.78;;;12.44;100.00
15646;BME280;7922;43.622;1.476;2024-02-16T09:43:42;100670.25;;;12.69;100.00
15646;BME280;7922;43.622;1.476;2024-02-16T09:46:08;100619.53;;;12.30;100.00
15646;BME280;7922;43.622;1.476;2024-02-16T09:48:33;100631.34;;;12.45;100.00
15646;BME280;7922;43.622;1.476;2024-02-16T09:50:59;100633.47;;;12.59;100.00
15646;BME280;7922;43.622;1.476;2024-02-16T09:53:27;100662.25;;;12.69;100.00
15646;BME280;7922;43.622;1.476;2024-02-16T09:55:52;100632.53;;;12.60;100.00
15646;BME280;7922;43.622;1.476;2024-02-16T09:58:21;100699.47;;;13.13;100.00
15646;BME280;7922;43.622;1.476;2024-02-16T10:03:29;100700.78;;;12.81;100.00
15646;BME280;7922;43.622;1.476;2024-02-16T10:06:07;100698.81;;;12.86;100.00
15646;BME280;7922;43.622;1.476;2024-02-16T10:08:34;100658.00;;;12.65;100.00
15646;BME280;7922;43.622;1.476;2024-02-16T10:11:05;100705.41;;;12.98;100.00
15646;BME280;7922;43.622;1.476;2024-02-16T10:13:31;100691.81;;;12.84;100.00
15646;BME280;7922;43.622;1.476;2024-02-16T10:16:07;100653.03;;;12.56;100.00
15646;BME280;7922;43.622;1.476;2024-02-16T10:18:32;100716.38;;;12.90;100.00
15646;BME280;7922;43.622;1.476;2024-02-16T10:20:58;100700.22;;;12.73;100.00
15646;BME280;7922;43.622;1.476;2024-02-16T10:23:23;100724.59;;;12.84;100.00
15646;BME280;7922;43.622;1.476;2024-02-16T10:25:48;100707.69;;;12.85;100.00
15646;BME280;7922;43.622;1.476;2024-02-16T10:28:14;100710.19;;;12.90;100.00
15646;BME280;7922;43.622;1.476;2024-02-16T10:30:40;100687.75;;;12.75;100.00
15646;BME280;7922;43.622;1.476;2024-02-16T10:33:06;100739.31;;;12.71;100.00
15646;BME280;7922;43.622;1.476;2024-02-16T10:35:33;100729.09;;;12.60;100.00
15646;BME280;7922;43.622;1.476;2024-02-16T10:38:01;100717.34;;;12.66;100.00
15646;BME280;7922;43.622;1.476;2024-02-16T10:40:27;100750.72;;;12.96;100.00
15646;BME280;7922;43.622;1.476;2024-02-16T10:42:53;100696.91;;;12.44;100.00
15646;BME280;7922;43.622;1.476;2024-02-16T10:45:18;100731.78;;;12.59;100.00
15646;BME280;7922;43.622;1.476;2024-02-16T10:47:43;100739.06;;;12.77;100.00
15646;BME280;7922;43.622;1.476;2024-02-16T10:50:09;100748.44;;;12.64;100.00
15646;BME280;7922;43.622;1.476;2024-02-16T10:52:36;100762.19;;;12.75;100.00
15646;BME280;7922;43.622;1.476;2024-02-16T10:55:06;100754.97;;;12.79;100.00
15646;BME280;7922;43.622;1.476;2024-02-16T10:57:35;100719.78;;;12.72;100.00
15646;BME280;7922;43.622;1.476;2024-02-16T11:00:07;100757.13;;;12.91;100.00
15646;BME280;7922;43.622;1.476;2024-02-16T11:02:33;100714.00;;;12.61;100.00
15646;BME280;7922;43.622;1.476;2024-02-16T11:04:58;100761.22;;;12.54;100.00
15646;BME280;7922;43.622;1.476;2024-02-16T11:07:24;100771.19;;;12.47;100.00
15646;BME280;7922;43.622;1.476;2024-02-16T11:09:50;100724.94;;;12.29;100.00
15646;BME280;7922;43.622;1.476;2024-02-16T11:12:15;100782.34;;;12.34;100.00
15646;BME280;7922;43.622;1.476;2024-02-16T11:14:44;100729.13;;;12.12;100.00
15646;BME280;7922;43.622;1.476;2024-02-16T11:17:10;100785.06;;;12.56;100.00
15646;BME280;7922;43.622;1.476;2024-02-16T11:19:36;100705.50;;;12.06;100.00
15646;BME280;7922;43.622;1.476;2024-02-16T11:22:07;100763.38;;;12.19;100.00
15646;BME280;7922;43.622;1.476;2024-02-16T11:24:33;100794.84;;;12.32;100.00
15646;BME280;7922;43.622;1.476;2024-02-16T11:27:01;100768.50;;;12.00;100.00
15646;BME280;7922;43.622;1.476;2024-02-16T11:29:30;100796.28;;;12.40;100.00
15646;BME280;7922;43.622;1.476;2024-02-16T11:31:56;100721.06;;;11.91;100.00
15646;BME280;7922;43.622;1.476;2024-02-16T11:34:25;100731.53;;;11.94;100.00
15646;BME280;7922;43.622;1.476;2024-02-16T11:36:55;100762.53;;;12.19;100.00
15646;BME280;7922;43.622;1.476;2024-02-16T11:39:21;100777.50;;;12.45;100.00
15646;BME280;7922;43.622;1.476;2024-02-16T11:41:47;100783.91;;;12.39;100.00
15646;BME280;7922;43.622;1.476;2024-02-16T11:44:13;100791.09;;;12.61;100.00
15646;BME280;7922;43.622;1.476;2024-02-16T11:46:39;100781.84;;;12.47;100.00
15646;BME280;7922;43.622;1.476;2024-02-16T11:49:07;100726.03;;;12.24;100.00
15646;BME280;7922;43.622;1.476;2024-02-16T11:51:33;100783.34;;;12.55;100.00
15646;BME280;7922;43.622;1.476;2024-02-16T11:53:58;100713.22;;;12.35;100.00
15646;BME280;7922;43.622;1.476;2024-02-16T11:56:24;100761.38;;;12.73;100.00
15646;BME280;7922;43.622;1.476;2024-02-16T11:58:50;100774.56;;;12.98;100.00
15646;BME280;7922;43.622;1.476;2024-02-16T12:01:16;100789.66;;;12.97;100.00
15646;BME280;7922;43.622;1.476;2024-02-16T12:03:41;100751.78;;;12.69;100.00
15646;BME280;7922;43.622;1.476;2024-02-16T12:06:06;100750.97;;;12.67;100.00
15646;BME280;7922;43.622;1.476;2024-02-16T12:08:33;100720.06;;;12.64;100.00
15646;BME280;7922;43.622;1.476;2024-02-16T12:10:59;100760.50;;;12.72;100.00
15646;BME280;7922;43.622;1.476;2024-02-16T12:13:24;100766.56;;;12.76;100.00
15646;BME280;7922;43.622;1.476;2024-02-16T12:15:51;100765.72;;;12.75;100.00
15646;BME280;7922;43.622;1.476;2024-02-16T12:18:26;100735.56;;;12.53;100.00
15646;BME280;7922;43.622;1.476;2024-02-16T12:23:27;100764.97;;;12.72;100.00
15646;BME280;7922;43.622;1.476;2024-02-16T12:25:52;100715.72;;;12.62;100.00
15646;BME280;7922;43.622;1.476;2024-02-16T12:28:17;100737.50;;;12.71;100.00
15646;BME280;7922;43.622;1.476;2024-02-16T12:30:43;100753.72;;;12.87;100.00
15646;BME280;7922;43.622;1.476;2024-02-16T12:33:08;100719.22;;;12.64;100.00
15646;BME280;7922;43.622;1.476;2024-02-16T12:35:33;100776.28;;;13.21;100.00
15646;BME280;7922;43.622;1.476;2024-02-16T12:37:58;100773.00;;;13.14;100.00
15646;BME280;7922;43.622;1.476;2024-02-16T12:40:24;100744.25;;;13.02;100.00
15646;BME280;7922;43.622;1.476;2024-02-16T12:42:49;100732.94;;;12.97;100.00
15646;BME280;7922;43.622;1.476;2024-02-16T12:45:14;100770.22;;;13.41;100.00
15646;BME280;7922;43.622;1.476;2024-02-16T12:47:40;100778.72;;;13.49;100.00
15646;BME280;7922;43.622;1.476;2024-02-16T12:50:05;100716.56;;;12.86;100.00